Time;durP1;ratioP1;P1;durP2;ratioP2;P2;SDS_P1;SDS_P2;PMS_P1;PMS_P2;Temp;Humidity;BMP_temperature;BMP_pressure;BME280_temperature;BME280_humidity;BME280_pressure;Samples;Min_cycle;Max_cycle;Signal;HPM_P1;HPM_P2
2022/04/12 00:01:34;;;;;;;319.02;291.73;;;;;;;17.92;30.51;93536.50;5036836;28;20167;-69
2022/04/12 00:04:01;;;;;;;307.90;281.27;;;;;;;17.93;30.27;93531.84;5035754;28;20068;-69
2022/04/12 00:06:27;;;;;;;319.98;292.70;;;;;;;17.94;30.40;93528.66;5022213;28;20052;-70
2022/04/12 00:08:52;;;;;;;312.52;285.48;;;;;;;17.93;30.27;93523.72;5042736;28;20119;-70
2022/04/12 00:11:18;;;;;;;313.83;286.48;;;;;;;17.93;30.37;93526.44;5043446;28;20057;-69
2022/04/12 00:13:43;;;;;;;317.15;290.02;;;;;;;17.94;30.34;93525.97;5036700;28;20059;-68
2022/04/12 00:16:09;;;;;;;302.98;276.42;;;;;;;17.94;30.27;93525.97;5041441;28;20038;-68
2022/04/12 00:21:20;;;;;;;311.75;284.85;;;;;;;17.94;30.37;93525.97;5032801;28;20057;-68
2022/04/12 00:23:48;;;;;;;323.40;294.58;;;;;;;17.93;30.33;93513.66;5037193;28;20102;-68
2022/04/12 00:26:13;;;;;;;308.95;281.48;;;;;;;17.95;30.56;93510.47;5042639;28;20045;-68
2022/04/12 00:28:41;;;;;;;302.88;276.40;;;;;;;17.96;30.43;93517.38;5038625;28;20066;-68
2022/04/12 00:31:08;;;;;;;316.67;288.92;;;;;;;17.95;30.41;93510.47;5015118;28;20040;-69
2022/04/12 00:33:33;;;;;;;315.40;288.02;;;;;;;17.96;30.34;93512.72;5038147;28;20681;-69
2022/04/12 00:36:00;;;;;;;318.73;290.55;;;;;;;17.98;30.43;93517.66;5034174;28;20052;-69
2022/04/12 00:38:27;;;;;;;315.38;287.67;;;;;;;17.97;30.58;93505.34;5022212;28;20142;-69
2022/04/12 00:40:54;;;;;;;320.80;293.00;;;;;;;17.96;30.49;93506.56;5031343;28;20142;-69
2022/04/12 00:43:25;;;;;;;313.10;285.88;;;;;;;17.96;30.51;93512.72;5034730;28;20090;-69
2022/04/12 00:45:51;;;;;;;335.63;305.50;;;;;;;17.96;30.73;93510.00;5038715;28;20060;-69
2022/04/12 00:48:16;;;;;;;303.90;277.08;;;;;;;17.95;30.41;93508.50;5038082;28;20057;-69
2022/04/12 00:50:44;;;;;;;315.60;288.05;;;;;;;17.96;30.37;93506.56;5031298;28;20597;-69
2022/04/12 00:53:10;;;;;;;316.85;289.45;;;;;;;17.97;30.76;93508.06;5018988;28;20045;-69
2022/04/12 00:55:36;;;;;;;314.23;286.92;;;;;;;17.96;30.71;93499.19;5041525;28;20429;-69
2022/04/12 00:58:06;;;;;;;312.95;285.08;;;;;;;17.96;30.51;93503.84;5038262;28;20071;-69
2022/04/12 01:00:32;;;;;;;317.20;289.58;;;;;;;17.95;30.46;93500.41;5036769;28;20052;-69
2022/04/12 01:02:58;;;;;;;319.58;292.20;;;;;;;17.95;30.54;93491.53;5037871;28;20116;-69
2022/04/12 01:05:24;;;;;;;316.27;288.50;;;;;;;17.94;30.78;93484.63;5039155;28;20484;-69
2022/04/12 01:07:50;;;;;;;314.27;287.25;;;;;;;17.93;30.66;93478.47;5034967;28;20137;-69
2022/04/12 01:10:15;;;;;;;309.90;283.08;;;;;;;17.93;30.64;93477.72;5041059;28;20093;-69
2022/04/12 01:12:41;;;;;;;311.90;284.70;;;;;;;17.88;30.82;93479.13;5038121;28;20045;-69
2022/04/12 01:15:11;;;;;;;323.83;295.67;;;;;;;17.91;30.71;93469.34;5037028;28;20053;-69
2022/04/12 01:17:36;;;;;;;304.30;277.52;;;;;;;17.89;30.91;93472.50;5037724;28;20049;-69
2022/04/12 01:20:02;;;;;;;315.08;287.70;;;;;;;17.89;30.75;93477.91;5039786;28;20153;-69
2022/04/12 01:22:29;;;;;;;299.48;273.13;;;;;;;17.88;30.54;93473.72;5035966;28;20049;-69
2022/04/12 01:24:54;;;;;;;315.80;288.13;;;;;;;17.88;30.72;93473.72;5033926;28;20068;-69
2022/04/12 01:27:20;;;;;;;320.08;292.52;;;;;;;17.87;30.47;93479.59;5032260;28;20567;-69
2022/04/12 01:29:47;;;;;;;308.60;281.50;;;;;;;17.88;30.63;93472.97;5020883;28;20060;-69
2022/04/12 01:32:13;;;;;;;310.63;283.55;;;;;;;17.88;30.58;93465.59;5037525;28;20055;-69
2022/04/12 01:34:39;;;;;;;305.90;279.08;;;;;;;17.87;30.62;93469.50;5036542;28;20128;-69
2022/04/12 01:37:05;;;;;;;307.13;280.10;;;;;;;17.86;30.76;93465.31;5036018;28;20124;-69
2022/04/12 01:39:31;;;;;;;304.90;278.17;;;;;;;17.85;30.56;93466.53;5040019;28;20137;-69
2022/04/12 01:41:57;;;;;;;315.25;287.63;;;;;;;17.86;30.58;93464.56;5036558;28;20037;-69
2022/04/12 01:44:22;;;;;;;305.02;278.08;;;;;;;17.86;30.43;93462.63;5037600;28;20064;-69
2022/04/12 01:46:48;;;;;;;320.75;292.25;;;;;;;17.84;30.62;93459.63;5021516;28;20064;-69
2022/04/12 01:49:14;;;;;;;310.63;283.50;;;;;;;17.86;30.66;93453.75;5039791;28;20061;-69
2022/04/12 01:51:39;;;;;;;320.10;292.67;;;;;;;17.86;30.70;93449.09;5034635;28;20093;-69
2022/04/12 01:54:05;;;;;;;304.30;277.30;;;;;;;17.87;30.54;93468.78;5037486;28;20041;-69
2022/04/12 01:56:32;;;;;;;312.60;285.35;;;;;;;17.90;30.90;93462.44;5040802;28;20497;-69
2022/04/12 01:59:02;;;;;;;320.27;292.70;;;;;;;17.89;30.63;93450.88;5034674;28;20055;-69
2022/04/12 02:01:28;;;;;;;309.08;282.23;;;;;;;17.92;30.66;93460.00;5018174;28;20354;-69
2022/04/12 02:03:54;;;;;;;319.85;292.10;;;;;;;17.92;30.80;93460.75;5033441;28;20045;-69
2022/04/12 02:06:20;;;;;;;324.63;295.45;;;;;;;17.90;31.14;93454.31;5015996;28;20041;-69
2022/04/12 02:08:45;;;;;;;322.00;293.88;;;;;;;17.89;31.01;93460.94;5016558;28;20091;-69
2022/04/12 02:11:11;;;;;;;338.95;308.77;;;;;;;17.88;31.01;93468.31;5020897;28;20087;-69
2022/04/12 02:13:37;;;;;;;397.63;365.80;;;;;;;17.89;30.99;93469.81;5037495;28;20485;-69
2022/04/12 02:16:02;;;;;;;326.40;297.50;;;;;;;17.89;31.30;93458.97;5038470;28;20060;-69
2022/04/12 02:18:28;;;;;;;316.13;288.70;;;;;;;17.88;31.11;93468.31;5038240;28;20136;-69
2022/04/12 02:20:53;;;;;;;314.95;287.73;;;;;;;17.89;30.93;93460.94;5027194;28;20659;-69
2022/04/12 02:23:19;;;;;;;315.77;288.58;;;;;;;17.90;31.06;93465.13;5036289;28;20421;-69
2022/04/12 02:25:45;;;;;;;311.83;284.05;;;;;;;17.88;31.02;93464.84;5032320;28;20459;-69
2022/04/12 02:28:10;;;;;;;320.10;292.20;;;;;;;17.88;31.02;93464.84;5035392;28;20130;-69
2022/04/12 02:30:38;;;;;;;311.50;284.08;;;;;;;17.88;31.24;93454.03;5032664;28;20055;-69
2022/04/12 02:33:03;;;;;;;312.75;285.45;;;;;;;17.88;31.19;93462.16;5041403;28;20574;-69
2022/04/12 02:35:29;;;;;;;302.70;276.15;;;;;;;17.86;30.89;93456.47;5044528;28;20049;-69
2022/04/12 02:37:55;;;;;;;309.23;282.10;;;;;;;17.85;30.95;93461.13;5028159;28;20052;-69
2022/04/12 02:40:21;;;;;;;316.92;289.58;;;;;;;17.85;30.99;93458.41;5043571;28;20090;-69
2022/04/12 02:42:46;;;;;;;321.15;293.85;;;;;;;17.83;31.07;93458.13;5048751;28;20140;-69
2022/04/12 02:45:12;;;;;;;321.10;293.50;;;;;;;17.82;31.21;93464.75;5039306;28;20156;-70
2022/04/12 02:47:37;;;;;;;307.90;280.45;;;;;;;17.83;31.10;93458.13;5041678;28;20049;-69
2022/04/12 02:50:03;;;;;;;312.48;285.02;;;;;;;17.84;31.08;93470.44;5039186;28;20075;-69
2022/04/12 02:52:29;;;;;;;307.70;280.80;;;;;;;17.85;31.15;93460.38;5041885;28;20118;-69
2022/04/12 02:54:54;;;;;;;331.55;301.83;;;;;;;17.83;31.09;93468.94;5036075;28;20061;-69
2022/04/12 02:57:20;;;;;;;300.48;273.83;;;;;;;17.82;30.96;93467.47;5039539;28;20045;-69
2022/04/12 02:59:45;;;;;;;307.45;281.00;;;;;;;17.81;31.03;93459.81;5040450;28;20156;-69
2022/04/12 03:02:11;;;;;;;319.25;291.65;;;;;;;17.82;30.95;93458.59;5034988;28;20131;-69
2022/04/12 03:04:37;;;;;;;301.48;274.90;;;;;;;17.80;30.98;93456.34;5040182;28;20060;-69
2022/04/12 03:07:02;;;;;;;324.88;296.20;;;;;;;17.80;31.04;93459.06;5039990;28;20052;-69
2022/04/12 03:09:28;;;;;;;303.95;277.23;;;;;;;17.80;31.17;93461.03;5039517;28;20565;-69
2022/04/12 03:11:54;;;;;;;298.42;272.15;;;;;;;17.81;31.07;93460.56;5038445;28;20155;-69
2022/04/12 03:14:19;;;;;;;311.38;283.73;;;;;;;17.81;31.14;93460.56;5033423;28;20053;-69
2022/04/12 03:16:45;;;;;;;326.73;297.63;;;;;;;17.81;31.16;93457.84;5037653;28;20520;-69
2022/04/12 03:19:11;;;;;;;306.63;279.40;;;;;;;17.78;31.18;93453.38;5027918;28;20493;-69
2022/04/12 03:21:36;;;;;;;304.42;277.77;;;;;;;17.80;31.15;93453.66;5039481;28;20454;-70
2022/04/12 03:24:03;;;;;;;312.30;284.42;;;;;;;17.79;31.15;93457.56;5036484;28;20037;-69
2022/04/12 03:26:29;;;;;;;308.00;280.92;;;;;;;17.76;31.02;93458.50;5018984;28;20497;-69
2022/04/12 03:28:55;;;;;;;314.85;287.67;;;;;;;17.77;31.19;93451.88;5034817;28;20076;-69
2022/04/12 03:31:21;;;;;;;308.70;281.60;;;;;;;17.74;31.12;93456.25;5031973;28;20060;-69
2022/04/12 03:33:48;;;;;;;306.23;279.48;;;;;;;17.75;31.09;93452.34;5040520;28;20048;-69
2022/04/12 03:36:14;;;;;;;317.33;289.58;;;;;;;17.75;31.11;93452.34;5036892;28;20056;-69
2022/04/12 03:38:48;;;;;;;316.02;289.02;;;;;;;17.76;31.15;93453.09;5041952;28;20048;-69
2022/04/12 03:41:22;;;;;;;305.17;278.25;;;;;;;17.75;30.99;93444.22;5038430;28;20059;-68
2022/04/12 03:43:48;;;;;;;312.45;284.92;;;;;;;17.74;30.97;93456.25;5031756;28;20056;-69
2022/04/12 03:46:14;;;;;;;309.27;282.13;;;;;;;17.76;31.11;93453.84;5036535;28;20049;-69
2022/04/12 03:48:40;;;;;;;352.90;322.70;;;;;;;17.77;31.12;93457.28;5034796;28;20559;-69
2022/04/12 03:51:06;;;;;;;314.65;286.95;;;;;;;17.80;31.16;93452.91;5039198;28;20041;-69
2022/04/12 03:53:31;;;;;;;310.48;283.33;;;;;;;17.78;31.23;93459.53;5036860;28;20049;-69
2022/04/12 03:55:57;;;;;;;317.98;289.05;;;;;;;17.79;31.11;93457.56;5020488;28;20158;-69
2022/04/12 03:58:23;;;;;;;317.70;290.05;;;;;;;17.79;31.36;93462.97;5039488;28;20064;-69
2022/04/12 04:00:49;;;;;;;314.52;286.75;;;;;;;17.77;31.14;93463.44;5014855;28;20056;-69
2022/04/12 04:03:15;;;;;;;325.63;296.50;;;;;;;17.79;31.36;93465.69;5030991;28;20893;-69
2022/04/12 04:05:41;;;;;;;330.10;300.88;;;;;;;17.80;31.16;93464.47;5034612;28;20037;-69
2022/04/12 04:08:07;;;;;;;308.90;281.70;;;;;;;17.79;31.15;93465.69;5036663;28;20044;-69
2022/04/12 04:10:32;;;;;;;314.33;286.95;;;;;;;17.78;31.21;93461.47;5017790;28;20053;-69
2022/04/12 04:12:58;;;;;;;312.30;285.35;;;;;;;17.80;31.24;93463.72;5035053;28;20052;-69
2022/04/12 04:15:24;;;;;;;307.20;279.85;;;;;;;17.81;31.10;93467.94;5035942;28;21485;-69
2022/04/12 04:17:50;;;;;;;313.13;285.60;;;;;;;17.82;31.25;93455.91;5030354;28;20169;-69
2022/04/12 04:20:17;;;;;;;316.00;288.40;;;;;;;17.83;31.07;93460.84;5031628;28;20121;-70
2022/04/12 04:22:44;;;;;;;319.98;292.15;;;;;;;17.83;31.36;93446.56;5037992;28;20104;-70
2022/04/12 04:25:14;;;;;;;321.77;293.40;;;;;;;17.86;31.12;93448.34;5031231;28;20720;-70
2022/04/12 04:27:41;;;;;;;325.17;297.42;;;;;;;17.87;31.11;93452.53;5041815;28;20093;-71
2022/04/12 04:30:08;;;;;;;316.40;289.45;;;;;;;17.88;31.23;93449.38;5036607;28;20440;-70
2022/04/12 04:32:35;;;;;;;308.13;281.65;;;;;;;17.89;31.08;93444.72;5043582;28;20132;-70
2022/04/12 04:35:01;;;;;;;327.42;299.40;;;;;;;17.89;31.18;93450.88;5039822;28;20057;-67
2022/04/12 04:37:27;;;;;;;323.27;295.45;;;;;;;17.90;31.06;93444.25;5041724;28;20119;-69
2022/04/12 04:39:53;;;;;;;325.60;297.05;;;;;;;17.90;31.12;93440.78;5040044;28;20049;-68
2022/04/12 04:42:20;;;;;;;325.17;297.05;;;;;;;17.92;31.23;93446.47;5041796;28;20057;-69
2022/04/12 04:44:47;;;;;;;332.85;303.98;;;;;;;17.92;31.17;93449.94;5034707;28;20544;-70
2022/04/12 04:47:12;;;;;;;314.30;287.00;;;;;;;17.94;31.21;93444.81;5042414;28;20413;-69
2022/04/12 04:49:38;;;;;;;317.88;290.25;;;;;;;17.92;30.98;93447.22;5033998;28;20098;-69
2022/04/12 04:52:04;;;;;;;309.38;281.98;;;;;;;17.97;31.15;93454.69;5036087;28;20067;-69
2022/04/12 04:54:29;;;;;;;322.50;294.35;;;;;;;18.02;31.47;93456.00;5034741;28;20374;-69
2022/04/12 04:56:56;;;;;;;324.85;296.88;;;;;;;18.07;31.13;93449.94;5042108;28;20111;-69
2022/04/12 04:59:21;;;;;;;332.02;302.95;;;;;;;18.06;31.41;93457.31;5043000;28;20129;-70
2022/04/12 05:01:47;;;;;;;319.70;292.02;;;;;;;18.07;31.33;93458.78;5033063;28;20448;-70
2022/04/12 05:04:12;;;;;;;314.05;287.25;;;;;;;18.08;31.24;93465.69;5039916;28;20080;-70
2022/04/12 05:06:38;;;;;;;325.58;298.15;;;;;;;18.13;31.37;93452.72;5030513;28;20037;-69
2022/04/12 05:09:03;;;;;;;325.83;298.23;;;;;;;18.13;31.56;93458.16;5031402;28;20056;-69
2022/04/12 05:11:31;;;;;;;325.00;297.25;;;;;;;18.12;31.36;93457.41;5031131;28;20046;-69
2022/04/12 05:13:56;;;;;;;336.52;308.27;;;;;;;18.13;31.35;93466.25;5031336;28;20045;-69
2022/04/12 05:16:22;;;;;;;324.05;296.15;;;;;;;18.13;31.04;93460.84;5029832;28;20128;-69
2022/04/12 05:18:47;;;;;;;335.38;307.23;;;;;;;18.15;31.30;93467.28;5034377;28;20056;-69
2022/04/12 05:21:13;;;;;;;330.75;303.13;;;;;;;18.18;31.33;93468.31;5029176;28;20497;-69
2022/04/12 05:23:38;;;;;;;316.77;289.80;;;;;;;18.18;31.44;93466.34;5031484;28;20716;-70
2022/04/12 05:26:04;;;;;;;325.00;297.38;;;;;;;18.22;31.30;93458.75;5042582;28;20187;-70
2022/04/12 05:28:29;;;;;;;318.40;291.50;;;;;;;18.23;31.29;93457.56;5045781;28;20500;-70
2022/04/12 05:30:55;;;;;;;333.20;305.38;;;;;;;18.18;30.86;93465.59;5040849;28;20038;-70
2022/04/12 05:33:21;;;;;;;327.25;300.02;;;;;;;18.14;30.97;93463.09;5041681;28;20123;-69
2022/04/12 05:35:46;;;;;;;346.55;318.30;;;;;;;18.13;30.79;93472.41;5037991;28;20047;-70
2022/04/12 05:38:12;;;;;;;335.83;307.85;;;;;;;18.13;30.86;93472.41;5020629;28;20417;-70
2022/04/12 05:40:48;;;;;;;334.52;306.80;;;;;;;18.17;30.96;93472.97;5038788;28;20527;-70
2022/04/12 05:43:13;;;;;;;334.35;306.40;;;;;;;18.20;30.91;93471.31;5042776;28;20033;-70
2022/04/12 05:45:39;;;;;;;317.60;290.95;;;;;;;18.21;31.07;93472.75;5044899;28;20044;-70
2022/04/12 05:48:05;;;;;;;323.38;296.45;;;;;;;18.21;31.04;93473.50;5042443;28;20049;-70
2022/04/12 05:50:30;;;;;;;322.45;296.30;;;;;;;18.21;30.78;93472.75;5034694;28;20156;-70
2022/04/12 05:52:57;;;;;;;317.20;290.85;;;;;;;18.22;30.91;93480.41;5037869;28;20051;-69
2022/04/12 05:55:24;;;;;;;329.50;302.20;;;;;;;18.24;31.05;93485.38;5026742;28;20044;-69
2022/04/12 05:57:52;;;;;;;316.75;290.33;;;;;;;18.22;30.86;93475.00;5039018;28;20037;-69
2022/04/12 06:00:21;;;;;;;330.15;302.25;;;;;;;18.23;31.00;93481.91;5024022;28;20119;-69
2022/04/12 06:02:47;;;;;;;318.17;291.30;;;;;;;18.23;30.74;93481.91;5026457;28;20153;-68
2022/04/12 06:05:14;;;;;;;325.80;298.92;;;;;;;18.24;30.71;93477.25;5044975;28;20139;-69
2022/04/12 06:07:41;;;;;;;328.85;301.02;;;;;;;18.27;30.70;93484.44;5040369;28;20053;-69
2022/04/12 06:10:08;;;;;;;332.15;304.30;;;;;;;18.27;30.70;93484.44;5044751;28;20142;-68
2022/04/12 06:12:33;;;;;;;333.15;305.65;;;;;;;18.30;30.79;93484.25;5042250;28;20087;-69
2022/04/12 06:14:59;;;;;;;320.08;293.05;;;;;;;18.31;30.83;93487.69;5042797;28;20365;-69
2022/04/12 06:17:32;;;;;;;337.75;310.05;;;;;;;18.33;30.77;93487.97;5036228;28;20103;-69
2022/04/12 06:20:06;;;;;;;332.98;304.88;;;;;;;18.34;30.55;93481.34;5038213;28;20151;-68
2022/04/12 06:22:32;;;;;;;321.63;294.60;;;;;;;18.35;30.80;93480.13;5039433;28;20417;-70
2022/04/12 06:24:57;;;;;;;331.40;303.55;;;;;;;18.35;30.58;93482.84;5044397;28;20040;-69
2022/04/12 06:27:33;;;;;;;322.20;294.85;;;;;;;18.35;30.73;93491.72;5038660;28;20087;-69
2022/04/12 06:30:06;;;;;;;333.38;305.23;;;;;;;18.35;30.57;93501.78;5042173;28;20044;-69
2022/04/12 06:32:33;;;;;;;334.05;306.08;;;;;;;18.35;30.61;93496.38;5035449;28;20053;-69
2022/04/12 06:34:59;;;;;;;331.90;304.27;;;;;;;18.36;30.64;93495.16;5031544;28;20071;-70
2022/04/12 06:37:26;;;;;;;321.45;294.23;;;;;;;18.36;30.44;93492.44;5038586;28;20053;-69
2022/04/12 06:39:52;;;;;;;314.58;287.58;;;;;;;18.37;30.79;93486.56;5034558;28;20505;-69
2022/04/12 06:42:17;;;;;;;322.15;294.75;;;;;;;18.37;30.68;93489.28;5044059;28;20413;-69
2022/04/12 06:44:43;;;;;;;329.02;300.88;;;;;;;18.38;30.63;93496.19;5034850;28;20045;-69
2022/04/12 06:47:09;;;;;;;324.08;296.92;;;;;;;18.39;30.63;93497.69;5026799;28;20493;-70
2022/04/12 06:49:34;;;;;;;327.80;299.65;;;;;;;18.44;30.51;93491.59;5045463;28;20049;-72
2022/04/12 06:51:59;;;;;;;326.40;298.55;;;;;;;18.44;30.49;93493.56;5039238;28;20044;-71
2022/04/12 06:54:28;;;;;;;332.80;304.15;;;;;;;18.43;30.68;93492.06;5040026;28;20056;-71
2022/04/12 06:56:53;;;;;;;326.08;298.55;;;;;;;18.42;30.52;93488.63;5042151;28;20052;-71
2022/04/12 06:59:20;;;;;;;330.63;302.85;;;;;;;18.38;30.74;93495.44;5026695;28;20053;-71
2022/04/12 07:01:46;;;;;;;326.52;299.00;;;;;;;18.39;30.65;93507.75;5036608;28;20048;-71
2022/04/12 07:04:11;;;;;;;326.13;298.63;;;;;;;18.37;30.76;93485.81;5047932;28;20059;-70
2022/04/12 07:06:37;;;;;;;333.63;305.40;;;;;;;18.36;30.70;93495.91;5042448;28;20049;-69
2022/04/12 07:09:05;;;;;;;318.98;291.65;;;;;;;18.34;30.84;93497.59;5046927;28;20969;-71
2022/04/12 07:11:31;;;;;;;322.50;294.95;;;;;;;18.28;30.85;93485.91;5033426;28;20107;-70
2022/04/12 07:13:56;;;;;;;321.30;293.95;;;;;;;18.28;30.92;93492.09;5034681;28;20037;-69
2022/04/12 07:16:22;;;;;;;317.10;289.52;;;;;;;18.27;30.91;93489.84;5038117;28;20113;-70
2022/04/12 07:18:47;;;;;;;324.05;296.77;;;;;;;18.24;31.01;93485.38;5029126;28;20059;-69
2022/04/12 07:21:13;;;;;;;328.95;300.52;;;;;;;18.25;30.94;93486.84;5037967;28;20075;-69
2022/04/12 07:23:39;;;;;;;323.05;295.48;;;;;;;18.25;30.98;93484.16;5035445;28;20178;-69
2022/04/12 07:26:11;;;;;;;322.02;294.70;;;;;;;18.25;31.02;93484.91;5041648;28;20075;-68
2022/04/12 07:28:36;;;;;;;325.45;297.73;;;;;;;18.27;30.77;93493.28;5021192;28;20041;-68
2022/04/12 07:31:02;;;;;;;324.85;297.30;;;;;;;18.27;30.86;93479.75;5041440;28;20054;-68
2022/04/12 07:33:27;;;;;;;330.52;301.90;;;;;;;18.27;30.76;93479.75;5023065;28;21525;-70
2022/04/12 07:35:53;;;;;;;334.00;304.60;;;;;;;18.27;31.00;93485.19;5040270;28;20448;-70
2022/04/12 07:38:18;;;;;;;331.55;302.80;;;;;;;18.27;30.82;93471.63;5036708;28;20189;-70
2022/04/12 07:40:44;;;;;;;322.33;295.40;;;;;;;18.26;30.97;93478.28;5035801;28;20049;-70
2022/04/12 07:43:10;;;;;;;317.90;290.70;;;;;;;18.25;30.84;93471.38;5038916;28;20052;-70
2022/04/12 07:45:35;;;;;;;311.20;284.55;;;;;;;18.27;30.79;93473.59;5040210;28;20695;-69
2022/04/12 07:48:01;;;;;;;316.30;288.88;;;;;;;18.28;30.83;93472.38;5030334;28;20069;-70
2022/04/12 07:50:26;;;;;;;320.58;293.67;;;;;;;18.28;30.84;93467.72;5034016;28;20052;-70
2022/04/12 07:52:52;;;;;;;325.33;297.50;;;;;;;18.28;30.89;93472.38;5015362;28;20134;-71
2022/04/12 07:55:18;;;;;;;327.38;299.67;;;;;;;18.28;30.84;93458.84;5034139;28;20478;-69
2022/04/12 07:57:43;;;;;;;321.75;294.33;;;;;;;18.26;30.84;93467.44;5041493;28;20056;-70
2022/04/12 08:00:10;;;;;;;322.80;295.52;;;;;;;18.25;30.77;93470.63;5037975;28;20114;-69
2022/04/12 08:02:36;;;;;;;330.40;302.00;;;;;;;18.26;31.03;93464.72;5029618;28;20045;-69
2022/04/12 08:05:01;;;;;;;329.48;301.17;;;;;;;18.23;30.85;93464.94;5028395;28;20048;-69
2022/04/12 08:07:27;;;;;;;327.88;300.45;;;;;;;18.22;30.98;93466.13;5037653;28;20073;-69
2022/04/12 08:09:52;;;;;;;329.10;301.48;;;;;;;18.21;30.76;93473.50;5027909;28;20036;-69
2022/04/12 08:12:18;;;;;;;324.48;297.00;;;;;;;18.20;30.86;93469.31;5050052;28;20060;-69
2022/04/12 08:14:43;;;;;;;323.38;296.15;;;;;;;18.21;30.96;93470.06;5044970;28;20048;-69
2022/04/12 08:17:09;;;;;;;324.65;297.23;;;;;;;18.19;30.77;93462.44;5029807;28;20049;-69
2022/04/12 08:19:34;;;;;;;327.60;299.58;;;;;;;18.21;30.95;93461.94;5030070;28;20033;-69
2022/04/12 08:22:01;;;;;;;327.10;299.27;;;;;;;18.21;30.99;93459.22;5039255;28;20042;-69
2022/04/12 08:24:27;;;;;;;326.90;299.23;;;;;;;18.21;30.94;93465.38;5038052;28;20045;-69
2022/04/12 08:26:52;;;;;;;327.92;300.15;;;;;;;18.23;30.82;93467.63;5040367;28;20339;-69
2022/04/12 08:29:18;;;;;;;339.23;311.27;;;;;;;18.26;30.90;93453.16;5041257;28;20128;-69
2022/04/12 08:31:44;;;;;;;318.75;291.67;;;;;;;18.27;30.90;93460.06;5006762;28;20064;-69
2022/04/12 08:34:09;;;;;;;330.05;302.30;;;;;;;18.27;30.85;93454.66;5034441;28;20038;-69
2022/04/12 08:36:35;;;;;;;340.13;311.27;;;;;;;18.27;30.68;93458.09;5012474;28;20044;-69
2022/04/12 08:39:02;;;;;;;324.58;297.30;;;;;;;18.25;30.92;93454.38;5036249;28;20525;-69
2022/04/12 08:41:29;;;;;;;334.92;306.65;;;;;;;18.27;30.84;93451.94;5036206;28;20103;-69
2022/04/12 08:43:57;;;;;;;343.90;315.88;;;;;;;18.30;30.76;93453.72;5042921;28;20045;-70
2022/04/12 08:46:25;;;;;;;334.17;306.27;;;;;;;18.30;30.76;93451.00;5041199;28;20049;-69
2022/04/12 08:48:52;;;;;;;329.25;302.15;;;;;;;18.30;30.64;93451.75;5026045;28;20094;-69
2022/04/12 08:51:17;;;;;;;342.42;314.58;;;;;;;18.27;30.73;93452.69;5039967;28;20494;-69
2022/04/12 08:53:45;;;;;;;344.30;316.48;;;;;;;18.32;30.72;93452.03;5043217;28;20059;-69
2022/04/12 08:56:31;;;;;;;323.10;296.10;;;;;;;18.35;30.94;93453.81;5039899;28;20794;-69
2022/04/12 08:59:03;;;;;;;333.20;304.63;;;;;;;18.36;30.84;93441.00;5020678;28;20064;-69
2022/04/12 09:01:30;;;;;;;325.33;298.23;;;;;;;18.33;30.74;93452.78;5045801;28;20127;-69
2022/04/12 09:03:56;;;;;;;328.67;301.15;;;;;;;18.33;30.75;93450.06;5037765;28;20051;-69
2022/04/12 09:06:24;;;;;;;335.75;307.80;;;;;;;18.35;30.83;93442.97;5047168;28;20137;-70
2022/04/12 09:08:50;;;;;;;339.67;311.83;;;;;;;18.32;30.63;93449.31;5025694;28;20041;-69
2022/04/12 09:11:17;;;;;;;330.45;302.75;;;;;;;18.30;30.79;93448.31;5047750;28;20427;-69
2022/04/12 09:14:00;;;;;;;328.50;300.95;;;;;;;18.28;30.84;93448.78;5035702;28;20413;-69
2022/04/12 09:16:28;;;;;;;326.80;299.45;;;;;;;18.26;30.65;93445.78;5040829;28;20086;-69
2022/04/12 09:18:54;;;;;;;331.85;304.13;;;;;;;18.25;30.80;93444.28;5046097;28;20123;-69
2022/04/12 09:21:22;;;;;;;345.65;316.55;;;;;;;18.25;30.54;93441.59;5026781;28;20056;-66
2022/04/12 09:23:52;;;;;;;321.65;294.55;;;;;;;18.25;30.71;93436.19;5029150;28;20104;-66
2022/04/12 09:26:29;;;;;;;338.35;310.55;;;;;;;18.24;30.67;93434.69;5037133;28;20049;-67
2022/04/12 09:29:02;;;;;;;330.77;303.30;;;;;;;18.23;30.66;93429.75;5038695;28;20076;-68
2022/04/12 09:31:36;;;;;;;335.92;307.83;;;;;;;18.23;30.42;93433.19;5036630;28;20449;-67
2022/04/12 09:34:02;;;;;;;337.10;308.50;;;;;;;18.23;30.61;93427.78;5032094;28;20406;-67
2022/04/12 09:36:34;;;;;;;324.33;296.60;;;;;;;18.23;30.71;93433.19;5026896;28;20046;-67
2022/04/12 09:39:00;;;;;;;327.25;300.35;;;;;;;18.24;30.84;93420.41;5038637;28;20113;-67
2022/04/12 09:41:27;;;;;;;325.20;298.10;;;;;;;18.22;30.68;93414.72;5035332;28;20048;-67
2022/04/12 09:44:12;;;;;;;327.30;300.25;;;;;;;18.21;30.78;93411.25;5027611;28;20052;-67
2022/04/12 09:46:39;;;;;;;323.27;296.42;;;;;;;18.20;30.59;93409.78;5026415;28;20517;-67
2022/04/12 09:49:06;;;;;;;323.35;296.63;;;;;;;18.19;30.79;93411.00;5036035;28;20036;-67
2022/04/12 09:51:36;;;;;;;314.55;287.90;;;;;;;18.24;30.61;93413.03;5027764;28;20370;-66
2022/04/12 09:54:03;;;;;;;320.67;293.60;;;;;;;18.19;30.83;93408.31;5041321;28;20053;-67
2022/04/12 09:56:30;;;;;;;320.30;293.60;;;;;;;18.21;30.72;93397.72;5038965;28;20103;-67
2022/04/12 09:58:58;;;;;;;312.50;286.23;;;;;;;18.20;30.66;93398.94;5035721;28;20057;-67
2022/04/12 10:01:25;;;;;;;344.13;315.23;;;;;;;18.22;30.60;93393.81;5043066;28;20425;-67
2022/04/12 10:03:56;;;;;;;321.73;294.67;;;;;;;18.20;30.74;93395.53;5043763;28;20646;-67
2022/04/12 10:06:28;;;;;;;323.02;295.90;;;;;;;18.16;30.72;93389.56;5032911;28;20499;-67
2022/04/12 10:09:00;;;;;;;333.17;304.35;;;;;;;18.14;30.75;93392.72;5024558;28;20122;-67
2022/04/12 10:11:26;;;;;;;335.23;306.65;;;;;;;18.15;30.75;93388.06;5031129;28;20588;-67
2022/04/12 10:13:52;;;;;;;319.70;292.80;;;;;;;18.11;30.70;93388.25;5034511;28;20037;-68
2022/04/12 10:16:22;;;;;;;320.92;293.67;;;;;;;18.12;30.79;93381.63;5034316;28;20166;-68
2022/04/12 10:18:49;;;;;;;323.98;296.65;;;;;;;18.12;30.77;93378.91;5042673;28;21194;-67
2022/04/12 10:21:15;;;;;;;325.92;298.15;;;;;;;18.13;30.75;93382.38;5039223;28;20090;-68
2022/04/12 10:23:50;;;;;;;316.13;289.35;;;;;;;18.06;30.82;93373.41;5028257;28;20053;-67
2022/04/12 10:26:20;;;;;;;319.67;292.02;;;;;;;18.06;30.69;93372.69;5038320;28;20063;-67
2022/04/12 10:28:54;;;;;;;325.15;297.85;;;;;;;18.04;30.76;93365.03;5039240;28;20116;-67
2022/04/12 10:31:23;;;;;;;321.38;294.00;;;;;;;18.02;30.84;93372.13;5033323;28;20126;-67
2022/04/12 10:33:53;;;;;;;322.77;295.42;;;;;;;18.04;30.73;93370.44;5024728;28;20452;-67
2022/04/12 10:36:19;;;;;;;335.05;307.75;;;;;;;18.02;30.93;93364.00;5040054;28;20763;-67
2022/04/12 10:38:44;;;;;;;316.65;289.55;;;;;;;18.00;30.88;93364.47;5045990;28;20040;-67
2022/04/12 10:41:34;;;;;;;326.40;298.90;;;;;;;17.98;31.14;93366.16;5034851;28;20049;-67
2022/04/12 10:44:00;;;;;;;321.02;294.05;;;;;;;17.99;30.94;93367.66;5043761;28;20045;-67
2022/04/12 10:46:45;;;;;;;326.88;299.80;;;;;;;17.98;31.10;93360.75;5042845;28;20820;-67
2022/04/12 10:49:12;;;;;;;326.98;299.10;;;;;;;18.03;30.81;93362.78;5029083;28;20049;-67
2022/04/12 10:51:41;;;;;;;326.58;299.20;;;;;;;18.02;30.96;93361.31;5029673;28;20498;-67
2022/04/12 10:54:27;;;;;;;336.55;308.30;;;;;;;18.04;30.82;93362.31;5031266;28;21467;-67
2022/04/12 10:57:18;;;;;;;324.00;296.27;;;;;;;18.01;30.84;93354.41;5025535;28;20547;-67
2022/04/12 10:59:50;;;;;;;322.90;295.92;;;;;;;18.00;31.03;93358.31;5033123;28;20037;-67
2022/04/12 11:02:17;;;;;;;315.27;288.38;;;;;;;17.98;31.02;93364.19;5037481;28;20139;-67
2022/04/12 11:04:43;;;;;;;337.92;308.70;;;;;;;17.97;31.03;93360.00;5038569;28;20425;-67